Terminal Aerodrome Forecast
Issued by NWS Wilmington, OH

Current Version | Previous Version | Text Only | Print | Product List | Glossary Off
Versions: 1 2 3 4 5 6 7 8 9 10 11 12 13 14 15 16 17 18 19 20 21

000
FTUS41 KILN 152300
TAFCVG
TAF
KCVG 152320Z 1600/1706 32010KT P6SM BKN050
     FM160100 34005KT P6SM FEW050
     FM160400 VRB03KT P6SM SKC
     FM161300 13011KT P6SM SCT250
     FM170000 12007KT P6SM BKN250=

USA.gov is the U.S. government's official web portal to all federal, state and local government web resources and services.